Time;durP1;ratioP1;P1;durP2;ratioP2;P2;SDS_P1;SDS_P2;PMS_P1;PMS_P2;Temp;Humidity;BMP_temperature;BMP_pressure;BME280_temperature;BME280_humidity;BME280_pressure;Samples;Min_cycle;Max_cycle;Signal;HPM_P1;HPM_P2
2022/08/27 00:00:16;;;;;;;23.00;18.40;;;19.10;99.90;;;;;;5014886;28;20517;-67
2022/08/27 00:02:42;;;;;;;18.67;16.73;;;19.20;99.90;;;;;;4997779;28;20183;-67
2022/08/27 00:05:13;;;;;;;18.73;16.70;;;19.30;99.90;;;;;;5008297;28;20469;-67
2022/08/27 00:07:39;;;;;;;22.37;19.70;;;19.30;99.90;;;;;;4997540;28;20772;-67
2022/08/27 00:10:07;;;;;;;21.83;19.67;;;19.20;99.90;;;;;;5001338;28;20517;-67
2022/08/27 00:12:33;;;;;;;24.70;22.13;;;19.30;99.90;;;;;;5005144;28;21001;-67
2022/08/27 00:15:00;;;;;;;25.73;23.17;;;19.30;99.90;;;;;;5005826;28;20527;-66
2022/08/27 00:17:26;;;;;;;30.30;23.40;;;19.40;99.90;;;;;;5000449;28;20461;-67
2022/08/27 00:19:51;;;;;;;27.33;24.50;;;19.30;99.90;;;;;;5004372;28;20441;-66
2022/08/27 00:22:17;;;;;;;28.53;25.70;;;19.30;99.90;;;;;;5005306;28;20269;-67
2022/08/27 00:24:42;;;;;;;27.87;25.50;;;19.40;99.90;;;;;;5006740;28;20195;-66
2022/08/27 00:27:08;;;;;;;27.07;24.53;;;19.30;99.90;;;;;;5008509;28;20183;-67
2022/08/27 00:29:33;;;;;;;27.40;24.63;;;19.30;99.90;;;;;;5005752;28;20478;-67
2022/08/27 00:31:59;;;;;;;30.27;27.43;;;19.40;99.90;;;;;;5005009;28;20262;-67
2022/08/27 00:34:25;;;;;;;29.07;26.10;;;19.50;99.90;;;;;;5005011;28;20198;-67
2022/08/27 00:36:51;;;;;;;30.07;27.03;;;19.50;99.90;;;;;;5003753;28;20183;-67
2022/08/27 00:39:18;;;;;;;31.80;28.60;;;19.40;99.90;;;;;;4995394;28;20175;-67
2022/08/27 00:41:43;;;;;;;32.63;29.20;;;19.40;99.90;;;;;;5005088;28;20446;-67
2022/08/27 00:44:10;;;;;;;29.20;26.50;;;19.40;99.90;;;;;;5015733;28;20849;-67
2022/08/27 00:46:52;;;;;;;29.67;26.77;;;19.40;99.90;;;;;;5002044;28;20180;-67
2022/08/27 00:49:30;;;;;;;30.60;27.57;;;19.40;99.90;;;;;;4998537;28;20529;-67
2022/08/27 00:52:00;;;;;;;33.03;29.87;;;19.40;99.90;;;;;;5010169;28;20437;-67
2022/08/27 00:54:27;;;;;;;29.63;26.53;;;19.40;99.90;;;;;;5006915;28;20465;-67
2022/08/27 00:56:53;;;;;;;33.17;29.77;;;19.50;99.90;;;;;;5006876;28;20441;-67
2022/08/27 00:59:22;;;;;;;31.60;28.40;;;19.50;99.90;;;;;;5008802;28;20433;-67
2022/08/27 01:02:31;;;;;;;27.90;25.20;;;19.60;99.90;;;;;;5004304;28;20426;-67
2022/08/27 01:04:40;;;;;;;33.33;30.13;;;19.60;99.90;;;;;;5000946;23;20550;-67
2022/08/27 01:07:06;;;;;;;33.47;29.97;;;19.50;99.90;;;;;;4971590;28;20443;-67
2022/08/27 01:09:32;;;;;;;31.80;28.67;;;19.50;99.90;;;;;;4971193;28;20941;-67
2022/08/27 01:11:58;;;;;;;30.30;27.23;;;19.50;99.90;;;;;;4972567;28;20638;-67
2022/08/27 01:14:24;;;;;;;35.23;31.20;;;19.50;99.90;;;;;;4976992;28;20462;-66
2022/08/27 01:16:53;;;;;;;34.90;31.33;;;19.50;99.90;;;;;;4979874;28;20585;-67
2022/08/27 01:19:31;;;;;;;34.10;30.73;;;19.40;99.90;;;;;;4970192;28;20441;-68
2022/08/27 01:22:02;;;;;;;31.63;28.40;;;19.40;99.90;;;;;;4983037;28;20430;-67
2022/08/27 01:24:42;;;;;;;32.07;28.87;;;19.40;99.90;;;;;;4978170;28;20952;-68
2022/08/27 01:27:11;;;;;;;33.40;30.10;;;19.40;99.90;;;;;;4982718;28;20441;-67
2022/08/27 01:29:37;;;;;;;30.90;27.67;;;19.50;99.90;;;;;;4982486;28;20442;-67
2022/08/27 01:32:21;;;;;;;32.97;29.57;;;19.40;99.90;;;;;;4981079;28;20541;-67
2022/08/27 01:34:47;;;;;;;31.93;28.93;;;19.40;99.90;;;;;;4979477;28;20451;-67
2022/08/27 01:37:14;;;;;;;34.87;30.77;;;19.30;99.90;;;;;;4983285;28;20462;-68
2022/08/27 01:39:40;;;;;;;39.10;32.00;;;19.30;99.90;;;;;;4981793;28;20184;-67
2022/08/27 01:42:13;;;;;;;37.33;33.30;;;19.60;99.90;;;;;;4971849;28;20451;-66
2022/08/27 01:44:50;;;;;;;34.10;30.63;;;19.00;99.90;;;;;;4969023;28;20546;-67
2022/08/27 01:47:18;;;;;;;34.53;30.70;;;19.10;99.90;;;;;;4978236;28;20948;-66
2022/08/27 01:49:44;;;;;;;32.40;29.00;;;19.20;99.90;;;;;;4982555;28;20438;-67
2022/08/27 01:52:10;;;;;;;35.07;31.50;;;19.00;99.90;;;;;;4972369;28;20812;-66
2022/08/27 01:54:36;;;;;;;36.03;32.27;;;18.90;99.90;;;;;;4969574;28;20207;-67
2022/08/27 01:57:02;;;;;;;34.17;30.77;;;19.10;99.90;;;;;;4971698;28;20530;-69
2022/08/27 01:59:28;;;;;;;34.40;30.80;;;18.90;99.90;;;;;;4968429;28;20534;-67
2022/08/27 02:01:54;;;;;;;35.17;31.43;;;19.00;99.90;;;;;;4969639;28;20180;-67
2022/08/27 02:04:21;;;;;;;34.37;30.67;;;18.90;99.90;;;;;;4970819;28;20208;-67
2022/08/27 02:06:46;;;;;;;32.03;28.93;;;19.00;99.90;;;;;;4967545;28;20444;-67
2022/08/27 02:09:12;;;;;;;33.73;30.03;;;19.10;99.90;;;;;;4970202;28;20533;-68
2022/08/27 02:11:37;;;;;;;32.90;29.67;;;19.10;99.90;;;;;;4983731;28;20191;-67
2022/08/27 02:14:03;;;;;;;34.00;30.50;;;19.10;99.90;;;;;;4981855;28;20629;-67
2022/08/27 02:16:31;;;;;;;33.30;29.90;;;19.10;99.90;;;;;;4978846;28;20192;-67
2022/08/27 02:18:58;;;;;;;34.73;31.37;;;19.00;99.90;;;;;;4977243;28;20281;-68
2022/08/27 02:21:24;;;;;;;36.93;31.97;;;19.00;99.90;;;;;;4979908;28;20474;-67
2022/08/27 02:23:50;;;;;;;32.50;29.30;;;19.00;99.90;;;;;;4977008;28;21060;-66
2022/08/27 02:26:15;;;;;;;36.23;32.53;;;18.90;99.90;;;;;;4974090;28;20442;-68
2022/08/27 02:28:41;;;;;;;36.43;31.00;;;19.00;99.90;;;;;;4971432;28;20809;-67
2022/08/27 02:31:07;;;;;;;32.90;29.50;;;19.00;99.90;;;;;;4979616;28;20215;-67
2022/08/27 02:33:33;;;;;;;33.60;30.20;;;19.10;99.90;;;;;;4976028;28;20188;-67
2022/08/27 02:35:58;;;;;;;34.00;30.70;;;19.00;99.90;;;;;;4971750;28;20191;-66
2022/08/27 02:38:24;;;;;;;36.53;32.93;;;19.10;99.90;;;;;;4977068;28;21000;-67
2022/08/27 02:40:50;;;;;;;35.70;31.97;;;19.00;99.90;;;;;;4973268;28;20184;-68
2022/08/27 02:43:15;;;;;;;37.63;33.90;;;19.00;99.90;;;;;;4981822;28;20176;-67
2022/08/27 02:45:41;;;;;;;35.00;31.57;;;19.00;99.90;;;;;;4975164;28;20257;-67
2022/08/27 02:48:07;;;;;;;35.53;31.90;;;19.10;99.90;;;;;;4982488;28;20195;-67
2022/08/27 02:50:33;;;;;;;35.50;31.77;;;19.00;99.90;;;;;;4974605;28;20184;-67
2022/08/27 02:53:01;;;;;;;34.97;31.37;;;19.00;99.90;;;;;;4981932;28;20183;-68
2022/08/27 02:55:27;;;;;;;35.10;31.40;;;18.90;99.90;;;;;;4972306;28;20463;-66
2022/08/27 02:57:53;;;;;;;35.33;31.77;;;19.10;99.90;;;;;;4975298;28;20467;-68
2022/08/27 03:00:20;;;;;;;37.23;33.20;;;19.20;99.90;;;;;;4975848;28;20446;-68
2022/08/27 03:02:47;;;;;;;37.50;33.60;;;19.10;99.90;;;;;;4974246;28;20477;-68
2022/08/27 03:05:14;;;;;;;35.00;31.60;;;19.10;99.90;;;;;;4973806;28;20864;-67
2022/08/27 03:07:40;;;;;;;37.23;33.47;;;19.30;99.90;;;;;;4975659;28;20525;-66
2022/08/27 03:10:08;;;;;;;36.60;33.07;;;19.40;99.90;;;;;;4976274;28;20439;-67
2022/08/27 03:12:35;;;;;;;35.50;31.80;;;19.40;99.90;;;;;;4978596;28;20454;-67
2022/08/27 03:15:02;;;;;;;34.13;30.53;;;19.40;99.90;;;;;;4972865;28;20459;-67
2022/08/27 03:20:12;;;;;;;33.43;30.00;;;19.40;99.90;;;;;;4987439;28;20450;-66
2022/08/27 03:22:39;;;;;;;29.67;26.70;;;19.40;99.90;;;;;;4973546;28;20435;-67
2022/08/27 03:25:05;;;;;;;31.33;28.10;;;19.30;99.90;;;;;;4979607;28;20681;-66
2022/08/27 03:27:31;;;;;;;29.83;26.70;;;19.20;99.90;;;;;;4974329;28;20501;-67
2022/08/27 03:29:56;;;;;;;31.83;28.37;;;19.20;99.90;;;;;;4981913;28;20955;-67
2022/08/27 03:32:23;;;;;;;30.93;28.03;;;19.30;99.90;;;;;;4972267;28;20189;-66
2022/08/27 03:34:48;;;;;;;29.10;26.30;;;19.40;99.90;;;;;;4980450;28;20227;-68
2022/08/27 03:37:14;;;;;;;32.27;29.07;;;19.50;99.90;;;;;;4973406;28;21015;-67
2022/08/27 03:39:39;;;;;;;29.50;26.60;;;19.50;99.90;;;;;;4973686;28;20184;-69
2022/08/27 03:42:05;;;;;;;25.03;22.53;;;19.50;99.90;;;;;;4973643;28;20184;-68
2022/08/27 03:44:31;;;;;;;23.97;21.77;;;19.40;99.90;;;;;;4974941;28;20271;-66
2022/08/27 03:46:56;;;;;;;25.90;23.17;;;19.30;99.90;;;;;;4972115;28;20185;-67
2022/08/27 03:49:22;;;;;;;26.83;23.90;;;20.10;99.90;;;;;;4975737;28;20485;-67
2022/08/27 03:51:50;;;;;;;24.67;22.37;;;19.20;99.90;;;;;;4974759;28;20605;-67
2022/08/27 03:54:15;;;;;;;26.87;24.47;;;19.30;99.90;;;;;;4976177;28;20520;-66
2022/08/27 03:56:42;;;;;;;26.90;24.03;;;19.20;99.90;;;;;;4976313;28;20451;-67
2022/08/27 03:59:07;;;;;;;28.17;25.37;;;19.30;99.90;;;;;;4972598;28;20219;-67
2022/08/27 04:01:33;;;;;;;26.10;23.40;;;19.10;99.90;;;;;;4971725;28;20440;-67
2022/08/27 04:03:59;;;;;;;29.67;26.57;;;19.10;99.90;;;;;;4972841;28;20220;-66
2022/08/27 04:06:24;;;;;;;27.67;24.43;;;19.00;99.90;;;;;;4972238;28;20191;-66
2022/08/27 04:08:50;;;;;;;30.33;27.27;;;19.00;99.90;;;;;;4972077;28;20215;-67
2022/08/27 04:11:16;;;;;;;30.10;27.30;;;19.10;99.90;;;;;;4980873;28;20184;-68
2022/08/27 04:13:42;;;;;;;32.13;28.83;;;19.10;99.90;;;;;;4973596;28;20732;-67
2022/08/27 04:16:08;;;;;;;30.03;27.13;;;19.10;99.90;;;;;;4975278;28;20443;-66
2022/08/27 04:18:33;;;;;;;29.40;26.67;;;19.20;99.90;;;;;;4971950;28;20479;-66
2022/08/27 04:21:07;;;;;;;36.20;32.57;;;19.20;99.90;;;;;;4971879;28;20192;-66
2022/08/27 04:23:33;;;;;;;35.97;32.57;;;19.10;99.90;;;;;;4972488;28;20184;-68
2022/08/27 04:25:59;;;;;;;35.17;31.77;;;19.10;99.90;;;;;;4974437;28;21089;-67
2022/08/27 04:28:24;;;;;;;33.97;30.97;;;19.10;99.90;;;;;;4972928;28;20452;-68
2022/08/27 04:30:50;;;;;;;32.83;29.67;;;19.20;99.90;;;;;;4971764;28;20455;-66
2022/08/27 04:33:16;;;;;;;34.20;31.03;;;19.20;99.90;;;;;;4972410;28;20188;-68
2022/08/27 04:35:41;;;;;;;33.57;30.07;;;19.30;99.90;;;;;;4975005;28;20697;-66
2022/08/27 04:38:07;;;;;;;34.30;31.10;;;19.30;99.90;;;;;;4972006;28;20254;-67
2022/08/27 04:43:19;;;;;;;37.03;33.20;;;19.30;99.90;;;;;;4972705;28;20191;-68
2022/08/27 04:45:46;;;;;;;38.50;34.73;;;19.20;99.90;;;;;;4979925;28;20491;-68
2022/08/27 04:48:14;;;;;;;40.43;36.23;;;19.10;99.90;;;;;;4972620;28;21092;-67
2022/08/27 04:50:42;;;;;;;37.03;33.33;;;19.10;99.90;;;;;;4977278;28;20478;-66
2022/08/27 04:53:08;;;;;;;38.90;35.07;;;19.10;99.90;;;;;;4972080;28;20450;-67
2022/08/27 04:55:46;;;;;;;42.90;38.47;;;19.10;99.90;;;;;;4970927;28;20615;-67
2022/08/27 04:58:12;;;;;;;44.00;39.57;;;19.10;99.90;;;;;;4970270;28;20570;-68
2022/08/27 05:00:47;;;;;;;44.07;39.97;;;19.10;99.90;;;;;;4972576;28;20786;-67
2022/08/27 05:03:14;;;;;;;50.50;45.00;;;19.10;99.90;;;;;;4976614;28;20490;-66
2022/08/27 05:05:40;;;;;;;43.83;39.23;;;19.10;99.90;;;;;;4972646;28;20473;-66
2022/08/27 05:08:06;;;;;;;48.77;43.87;;;19.10;99.90;;;;;;4979865;28;20821;-67
2022/08/27 05:10:40;;;;;;;46.27;41.63;;;19.30;99.90;;;;;;4972120;28;20445;-67
2022/08/27 05:13:05;;;;;;;46.50;41.73;;;19.20;99.90;;;;;;4978807;28;20188;-68
2022/08/27 05:15:31;;;;;;;48.43;43.27;;;19.30;99.90;;;;;;4972469;28;20466;-68
2022/08/27 05:17:59;;;;;;;49.47;44.17;;;19.30;99.90;;;;;;4978518;28;20262;-66
2022/08/27 05:20:26;;;;;;;48.70;42.50;;;19.40;99.90;;;;;;4971896;28;20199;-66
2022/08/27 05:22:51;;;;;;;49.00;43.80;;;19.40;99.90;;;;;;4979356;28;20442;-68
2022/08/27 05:25:17;;;;;;;51.13;45.80;;;19.30;99.90;;;;;;4970408;28;20463;-67
2022/08/27 05:27:42;;;;;;;51.00;45.80;;;19.20;99.90;;;;;;4971538;28;20191;-68
2022/08/27 05:30:08;;;;;;;49.57;44.33;;;19.20;99.90;;;;;;4973865;28;20650;-66
2022/08/27 05:32:34;;;;;;;51.97;46.47;;;19.20;99.90;;;;;;4975530;28;20185;-66
2022/08/27 05:34:59;;;;;;;52.80;45.43;;;19.20;99.90;;;;;;4971361;28;20474;-67
2022/08/27 05:37:25;;;;;;;53.20;47.60;;;19.20;99.90;;;;;;4969314;28;21387;-68
2022/08/27 05:39:51;;;;;;;50.20;44.90;;;19.20;99.90;;;;;;4975408;28;20246;-66
2022/08/27 05:42:18;;;;;;;51.37;45.03;;;19.40;99.90;;;;;;4976374;28;20478;-66
2022/08/27 05:44:43;;;;;;;54.20;48.30;;;19.30;99.90;;;;;;4978707;28;20203;-68
2022/08/27 05:47:09;;;;;;;54.37;48.50;;;19.40;99.90;;;;;;4971418;28;20447;-67
2022/08/27 05:49:35;;;;;;;53.37;47.73;;;19.40;99.90;;;;;;4973529;28;20177;-67
2022/08/27 05:52:00;;;;;;;48.27;42.77;;;19.60;99.90;;;;;;4976694;28;20206;-67
2022/08/27 05:54:26;;;;;;;53.13;47.40;;;19.50;99.90;;;;;;4971970;28;20207;-67
2022/08/27 05:56:52;;;;;;;52.00;46.67;;;19.60;99.90;;;;;;4971759;28;20181;-67
2022/08/27 06:02:03;;;;;;;50.87;45.20;;;19.70;99.90;;;;;;4970968;28;20574;-66
2022/08/27 06:04:29;;;;;;;50.60;44.80;;;19.80;99.90;;;;;;4978506;28;20491;-67
2022/08/27 06:06:54;;;;;;;51.93;46.63;;;19.90;99.90;;;;;;4968843;28;20957;-67
2022/08/27 06:09:23;;;;;;;52.13;46.53;;;19.90;99.90;;;;;;4970288;28;20918;-68
2022/08/27 06:11:49;;;;;;;55.07;49.03;;;19.90;99.90;;;;;;4967134;28;20188;-67
2022/08/27 06:14:15;;;;;;;60.23;53.57;;;19.90;99.90;;;;;;4979056;28;20462;-68
2022/08/27 06:16:41;;;;;;;56.27;50.40;;;19.80;99.90;;;;;;4974818;28;20603;-67
2022/08/27 06:19:10;;;;;;;54.77;49.00;;;19.80;99.90;;;;;;4973581;28;21014;-67
2022/08/27 06:21:36;;;;;;;54.03;48.20;;;19.80;99.90;;;;;;4975615;28;20834;-68
2022/08/27 06:24:02;;;;;;;52.80;47.23;;;19.90;99.90;;;;;;4974673;28;20490;-67
2022/08/27 06:26:27;;;;;;;50.47;44.90;;;19.90;99.90;;;;;;4972951;28;20190;-68
2022/08/27 06:28:53;;;;;;;49.37;44.33;;;19.80;99.90;;;;;;4974269;28;20226;-67
2022/08/27 06:31:22;;;;;;;51.07;45.77;;;19.80;99.90;;;;;;4973167;28;20231;-67
2022/08/27 06:33:50;;;;;;;51.27;45.80;;;19.80;99.90;;;;;;4974214;28;20463;-68
2022/08/27 06:36:18;;;;;;;47.53;42.60;;;19.80;99.90;;;;;;4977918;28;20978;-68
2022/08/27 06:38:46;;;;;;;50.40;45.13;;;20.10;99.90;;;;;;4974921;28;20471;-67
2022/08/27 06:41:13;;;;;;;46.07;41.07;;;20.00;99.90;;;;;;4974930;28;20806;-67
2022/08/27 06:43:40;;;;;;;49.10;43.93;;;20.10;99.90;;;;;;4978649;28;20575;-69
2022/08/27 06:46:09;;;;;;;45.57;40.93;;;19.80;99.90;;;;;;4976311;28;20482;-67
2022/08/27 06:48:35;;;;;;;48.20;43.40;;;20.00;99.90;;;;;;4969849;28;20468;-67
2022/08/27 06:51:07;;;;;;;45.20;40.47;;;20.10;99.90;;;;;;4974425;28;20477;-67
2022/08/27 06:53:33;;;;;;;45.70;41.27;;;20.10;99.90;;;;;;4973378;28;20206;-67
2022/08/27 06:55:59;;;;;;;45.50;40.40;;;20.90;99.90;;;;;;4973394;28;20522;-67
2022/08/27 06:58:25;;;;;;;43.17;38.67;;;20.40;99.90;;;;;;4975777;28;20212;-67
2022/08/27 07:00:50;;;;;;;45.97;39.97;;;20.60;99.90;;;;;;4972952;28;20446;-68
2022/08/27 07:03:16;;;;;;;42.23;37.93;;;20.50;99.90;;;;;;4975454;28;20203;-67
2022/08/27 07:05:42;;;;;;;41.60;37.50;;;20.40;99.90;;;;;;4982630;28;20302;-68
2022/08/27 07:08:08;;;;;;;38.47;34.50;;;20.60;99.90;;;;;;4977044;28;20191;-67
2022/08/27 07:10:35;;;;;;;37.70;34.13;;;20.90;99.90;;;;;;4985816;28;20184;-68
2022/08/27 07:13:01;;;;;;;38.80;34.97;;;20.90;99.90;;;;;;4984103;28;20441;-67
2022/08/27 07:15:27;;;;;;;37.47;33.87;;;20.90;99.90;;;;;;4968544;28;20510;-68
2022/08/27 07:17:52;;;;;;;36.00;32.20;;;21.20;99.90;;;;;;4978883;28;20230;-68
2022/08/27 07:20:19;;;;;;;35.73;32.33;;;21.20;99.90;;;;;;4982184;28;20435;-67
2022/08/27 07:22:45;;;;;;;39.23;35.20;;;21.40;99.90;;;;;;4981714;28;20191;-67
2022/08/27 07:25:15;;;;;;;36.87;32.97;;;21.20;99.90;;;;;;4972786;28;20467;-68
2022/08/27 07:27:41;;;;;;;36.37;32.77;;;21.00;99.90;;;;;;4972738;28;20446;-68
2022/08/27 07:30:11;;;;;;;36.57;33.03;;;21.00;99.90;;;;;;4986309;28;20442;-68
2022/08/27 07:32:36;;;;;;;38.70;33.57;;;20.80;99.90;;;;;;4977614;28;20183;-69
2022/08/27 07:35:02;;;;;;;38.97;34.80;;;20.70;99.90;;;;;;4982939;28;20470;-70
2022/08/27 07:37:28;;;;;;;39.63;35.40;;;20.80;99.90;;;;;;4982267;28;20291;-69
2022/08/27 07:39:53;;;;;;;37.70;33.90;;;20.80;99.90;;;;;;4980831;28;20183;-70
2022/08/27 07:45:03;;;;;;;36.33;32.40;;;20.50;99.90;;;;;;4977820;28;20214;-70
2022/08/27 07:47:30;;;;;;;38.50;34.20;;;20.50;99.90;;;;;;4985593;28;20968;-70
2022/08/27 07:49:57;;;;;;;40.50;36.70;;;20.30;99.90;;;;;;4981719;28;20192;-67
2022/08/27 07:52:23;;;;;;;39.17;35.30;;;20.40;99.90;;;;;;4979084;28;20498;-67
2022/08/27 07:54:50;;;;;;;38.50;34.40;;;20.40;99.90;;;;;;4983631;28;20458;-67
2022/08/27 07:57:15;;;;;;;38.20;34.33;;;20.70;99.90;;;;;;4981069;28;20184;-67
2022/08/27 07:59:41;;;;;;;40.40;35.97;;;20.40;99.90;;;;;;4983565;28;20449;-67
2022/08/27 08:02:06;;;;;;;38.40;34.80;;;20.20;99.90;;;;;;4981221;28;20647;-70
2022/08/27 08:04:32;;;;;;;38.80;35.10;;;20.50;99.90;;;;;;4980448;28;20219;-69
2022/08/27 08:06:57;;;;;;;39.50;35.50;;;20.70;99.90;;;;;;4972277;28;20553;-68
2022/08/27 08:09:23;;;;;;;40.80;32.17;;;20.70;99.90;;;;;;4970666;28;20195;-68
2022/08/27 08:11:50;;;;;;;38.97;35.07;;;20.70;99.90;;;;;;4971822;28;20267;-67
2022/08/27 08:14:16;;;;;;;41.70;35.50;;;20.70;99.90;;;;;;4976615;28;20450;-67
2022/08/27 08:16:42;;;;;;;39.93;35.87;;;20.80;99.90;;;;;;4984942;28;20438;-69
2022/08/27 08:19:08;;;;;;;41.23;37.30;;;20.80;99.90;;;;;;4981181;28;20881;-67
2022/08/27 08:21:34;;;;;;;41.73;37.30;;;20.70;99.90;;;;;;4979676;28;20311;-66
2022/08/27 08:24:01;;;;;;;42.73;38.53;;;20.80;99.90;;;;;;4979179;28;20601;-70
2022/08/27 08:26:27;;;;;;;39.83;35.93;;;20.80;99.90;;;;;;4982594;28;20430;-70
2022/08/27 08:28:54;;;;;;;42.53;37.93;;;21.00;99.90;;;;;;4974593;28;20447;-70
2022/08/27 08:31:20;;;;;;;42.50;38.10;;;20.90;99.90;;;;;;4985849;28;20555;-70
2022/08/27 08:33:48;;;;;;;41.70;35.83;;;20.80;99.90;;;;;;4979070;28;20464;-74
2022/08/27 08:36:16;;;;;;;43.57;39.57;;;21.00;99.90;;;;;;4973262;28;20439;-74
2022/08/27 08:38:43;;;;;;;41.80;37.80;;;20.80;99.90;;;;;;4974342;28;20460;-74
2022/08/27 08:41:27;;;;;;;42.63;38.40;;;20.70;99.90;;;;;;4975703;28;20526;-76
2022/08/27 08:43:54;;;;;;;46.53;41.27;;;20.90;99.90;;;;;;4975829;28;20821;-74
2022/08/27 08:46:36;;;;;;;45.17;40.27;;;20.80;99.90;;;;;;4971153;28;20471;-72
2022/08/27 08:49:16;;;;;;;44.70;40.17;;;20.80;99.90;;;;;;4973697;28;20439;-73
2022/08/27 08:51:42;;;;;;;42.33;37.87;;;21.00;99.90;;;;;;4983182;28;20434;-73
2022/08/27 08:54:15;;;;;;;43.10;38.30;;;20.90;99.90;;;;;;4981936;28;20457;-73
2022/08/27 08:57:05;;;;;;;43.83;39.23;;;21.00;99.90;;;;;;4972025;28;20475;-73
2022/08/27 08:59:37;;;;;;;43.40;39.20;;;20.80;99.90;;;;;;4983855;28;20498;-74
2022/08/27 09:02:10;;;;;;;47.27;42.53;;;20.80;99.90;;;;;;4984173;28;20426;-74
2022/08/27 09:04:36;;;;;;;48.50;39.63;;;20.80;99.90;;;;;;4979727;28;20478;-76
2022/08/27 09:07:38;;;;;;;49.00;43.47;;;20.70;99.90;;;;;;4983433;28;20803;-77
2022/08/27 09:10:51;;;;;;;51.53;40.60;;;20.50;99.90;;;;;;4961178;28;20964;-70
2022/08/27 09:13:23;;;;;;;46.80;40.20;;;20.60;99.90;;;;;;4969513;28;20444;-77
2022/08/27 09:15:54;;;;;;;45.00;40.40;;;20.80;99.90;;;;;;4980762;28;20442;-72
2022/08/27 09:18:19;;;;;;;43.93;38.80;;;20.60;99.90;;;;;;4977931;28;20488;-77
2022/08/27 09:20:49;;;;;;;45.33;40.67;;;20.90;99.90;;;;;;4970779;28;20478;-75
2022/08/27 09:23:31;;;;;;;42.17;37.77;;;20.80;99.90;;;;;;4973583;28;20203;-76
2022/08/27 09:25:56;;;;;;;42.50;37.90;;;20.90;99.90;;;;;;4982750;28;20434;-77
2022/08/27 09:31:18;;;;;;;41.67;36.90;;;21.10;99.90;;;;;;4983504;28;20242;-75
2022/08/27 09:33:43;;;;;;;42.53;37.27;;;21.10;99.90;;;;;;4980804;28;20517;-76
2022/08/27 09:36:14;;;;;;;41.50;36.57;;;21.30;99.90;;;;;;4974460;28;20956;-77
2022/08/27 09:38:50;;;;;;;38.53;34.73;;;21.40;99.90;;;;;;4984468;28;20569;-77
2022/08/27 09:41:24;;;;;;;38.10;34.00;;;21.20;99.90;;;;;;4978002;28;20439;-78
2022/08/27 09:44:01;;;;;;;39.87;35.73;;;21.20;99.90;;;;;;4974505;28;20549;-77
2022/08/27 09:46:27;;;;;;;32.37;29.33;;;21.40;99.90;;;;;;4971866;28;20969;-77
2022/08/27 09:48:53;;;;;;;35.53;31.87;;;21.20;99.90;;;;;;4971732;28;20548;-74
2022/08/27 09:51:22;;;;;;;30.70;27.57;;;21.40;99.90;;;;;;4975713;28;20436;-74
2022/08/27 09:53:59;;;;;;;32.17;25.83;;;21.30;99.90;;;;;;4968995;28;20500;-76
2022/08/27 09:56:34;;;;;;;26.67;23.93;;;21.30;99.90;;;;;;4967309;28;20443;-76
2022/08/27 09:59:23;;;;;;;23.43;21.33;;;21.50;99.90;;;;;;4975992;28;20467;-71
2022/08/27 10:01:53;;;;;;;23.63;21.40;;;21.70;99.90;;;;;;4974472;28;20948;-77
2022/08/27 10:04:45;;;;;;;18.63;17.00;;;22.00;99.90;;;;;;4976667;28;20501;-74
2022/08/27 10:07:35;;;;;;;18.13;16.63;;;22.20;99.90;;;;;;4990882;28;20443;-74
2022/08/27 10:10:10;;;;;;;16.03;14.63;;;22.60;99.90;;;;;;4990078;28;20432;-74
2022/08/27 10:12:41;;;;;;;20.43;17.13;;;22.40;99.90;;;;;;4993510;28;20497;-73
2022/08/27 10:15:10;;;;;;;15.40;14.00;;;23.00;99.90;;;;;;4989782;28;20535;-73
2022/08/27 10:18:04;;;;;;;16.90;15.60;;;22.90;99.90;;;;;;4989186;28;20455;-75
2022/08/27 10:20:48;;;;;;;12.90;11.80;;;22.80;99.90;;;;;;4971877;28;20526;-77
2022/08/27 10:23:41;;;;;;;13.70;12.60;;;23.20;99.90;;;;;;4971731;28;20436;-73
2022/08/27 10:26:45;;;;;;;15.60;14.30;;;22.80;99.90;;;;;;4974731;28;20470;-75
2022/08/27 10:29:33;;;;;;;15.80;14.37;;;22.70;99.90;;;;;;4945293;28;20428;-74
2022/08/27 10:32:09;;;;;;;15.90;14.60;;;22.40;99.90;;;;;;4973195;28;20485;-73
2022/08/27 10:35:12;;;;;;;14.00;12.73;;;22.50;99.90;;;;;;4985995;28;20454;-76
2022/08/27 10:37:43;;;;;;;15.57;14.37;;;22.80;99.90;;;;;;4970454;28;20467;-69
2022/08/27 10:40:17;;;;;;;15.90;14.67;;;22.90;99.90;;;;;;4973343;28;20471;-67
2022/08/27 10:42:51;;;;;;;14.97;13.87;;;23.20;99.90;;;;;;4982704;28;20585;-67
2022/08/27 10:45:38;;;;;;;17.03;15.63;;;23.60;99.90;;;;;;4979429;28;20450;-69
2022/08/27 10:48:09;;;;;;;17.07;15.57;;;23.90;99.90;;;;;;4981087;28;20494;-67
2022/08/27 10:51:10;;;;;;;16.40;15.00;;;24.00;99.90;;;;;;4974597;28;20435;-69
2022/08/27 10:53:57;;;;;;;17.13;15.50;;;24.00;99.90;;;;;;4935518;28;20450;-70
2022/08/27 10:56:34;;;;;;;18.03;16.47;;;23.80;99.90;;;;;;4969644;28;20890;-69
2022/08/27 10:59:27;;;;;;;18.00;16.40;;;23.60;99.90;;;;;;4978829;28;20516;-68
2022/08/27 11:02:11;;;;;;;23.90;16.00;;;23.50;99.90;;;;;;4982387;28;20461;-70
2022/08/27 11:04:45;;;;;;;18.97;17.30;;;23.20;99.90;;;;;;4979770;28;20466;-69
2022/08/27 11:07:20;;;;;;;19.50;17.67;;;23.10;99.90;;;;;;4972334;28;20435;-69
2022/08/27 11:09:55;;;;;;;20.43;18.60;;;23.10;99.90;;;;;;4973459;28;20514;-69
2022/08/27 11:12:27;;;;;;;19.40;17.60;;;23.00;99.90;;;;;;4973040;28;20509;-69
2022/08/27 11:15:14;;;;;;;18.00;16.33;;;23.10;99.90;;;;;;4972821;28;20455;-68
2022/08/27 11:17:50;;;;;;;18.80;17.20;;;23.10;99.90;;;;;;4969104;28;20518;-69
2022/08/27 11:20:23;;;;;;;20.10;18.30;;;23.10;99.90;;;;;;4980544;28;20485;-69
2022/08/27 11:22:49;;;;;;;20.13;18.13;;;23.10;99.90;;;;;;4982556;28;21160;-69
2022/08/27 11:25:22;;;;;;;21.13;19.23;;;23.00;99.90;;;;;;4983999;28;20501;-69
2022/08/27 11:27:52;;;;;;;22.00;19.87;;;22.80;99.90;;;;;;4978517;28;20646;-69
2022/08/27 11:30:44;;;;;;;22.17;19.83;;;22.80;99.90;;;;;;4975082;28;20940;-68
2022/08/27 11:33:29;;;;;;;22.70;20.80;;;22.70;99.90;;;;;;4973415;28;20804;-68
2022/08/27 11:36:27;;;;;;;21.93;20.10;;;22.40;99.90;;;;;;4977357;28;20443;-68
2022/08/27 11:39:16;;;;;;;20.40;18.60;;;22.20;99.90;;;;;;4969897;28;20464;-69
2022/08/27 11:41:59;;;;;;;22.93;21.00;;;22.10;99.90;;;;;;4972390;28;20438;-70
2022/08/27 11:44:26;;;;;;;21.30;19.30;;;22.00;99.90;;;;;;4970605;28;20459;-69
2022/08/27 11:47:11;;;;;;;22.00;20.17;;;22.00;99.90;;;;;;4972145;28;20436;-69
2022/08/27 11:49:45;;;;;;;19.87;17.87;;;22.00;99.90;;;;;;4969341;28;20443;-69
2022/08/27 11:52:18;;;;;;;23.20;21.17;;;22.10;99.90;;;;;;4972900;28;20474;-69
2022/08/27 11:55:07;;;;;;;22.33;20.33;;;22.10;99.90;;;;;;4973012;28;21019;-69
2022/08/27 11:57:35;;;;;;;23.40;21.37;;;21.90;99.90;;;;;;4980962;28;20419;-69
2022/08/27 12:00:19;;;;;;;29.70;27.00;;;21.90;99.90;;;;;;4972443;28;20785;-69
2022/08/27 12:03:03;;;;;;;23.73;21.30;;;21.90;99.90;;;;;;4973901;28;20442;-68
2022/08/27 12:05:47;;;;;;;26.23;23.83;;;22.00;99.90;;;;;;4971446;28;20470;-70
2022/08/27 12:08:21;;;;;;;23.63;21.40;;;22.00;99.90;;;;;;4969743;28;20995;-67
2022/08/27 12:11:24;;;;;;;24.63;22.57;;;22.10;99.90;;;;;;4973595;28;20545;-69
2022/08/27 12:14:22;;;;;;;25.83;23.43;;;22.10;99.90;;;;;;4978196;28;20466;-68
2022/08/27 12:17:16;;;;;;;26.90;24.30;;;22.10;99.90;;;;;;4968011;28;20439;-69
2022/08/27 12:20:07;;;;;;;42.97;38.33;;;22.00;99.90;;;;;;4972812;28;20534;-70
2022/08/27 12:25:26;;;;;;;27.23;24.63;;;22.10;99.90;;;;;;4974514;28;20454;-68
2022/08/27 12:27:58;;;;;;;28.07;25.17;;;22.10;99.90;;;;;;4976200;28;20474;-69
2022/08/27 12:30:34;;;;;;;25.20;23.03;;;22.50;99.90;;;;;;4971498;28;20619;-69
2022/08/27 12:33:26;;;;;;;24.97;22.97;;;22.10;99.90;;;;;;4974341;28;20537;-69
2022/08/27 12:35:55;;;;;;;25.83;23.33;;;22.10;99.90;;;;;;4968587;28;20459;-68
2022/08/27 12:38:33;;;;;;;26.30;24.00;;;22.20;99.90;;;;;;4971905;28;20475;-69
2022/08/27 12:41:04;;;;;;;25.67;23.00;;;22.30;99.90;;;;;;4972279;28;20447;-68
2022/08/27 12:43:34;;;;;;;25.80;23.20;;;22.50;99.90;;;;;;4970483;28;20448;-69
2022/08/27 12:46:04;;;;;;;26.60;24.20;;;22.60;99.90;;;;;;4973988;28;20443;-69
2022/08/27 12:48:42;;;;;;;26.53;24.00;;;22.70;99.90;;;;;;4977362;28;20447;-69
2022/08/27 12:51:32;;;;;;;26.30;23.90;;;22.80;99.90;;;;;;4975169;28;20447;-69
2022/08/27 12:54:33;;;;;;;26.07;23.97;;;22.80;99.90;;;;;;4971455;28;20988;-68
2022/08/27 12:57:16;;;;;;;27.87;25.27;;;23.00;99.90;;;;;;4978475;28;20439;-69
2022/08/27 13:00:05;;;;;;;27.13;24.77;;;23.10;99.90;;;;;;4971193;28;20435;-69
2022/08/27 13:02:46;;;;;;;25.70;23.50;;;23.10;99.90;;;;;;4973274;28;20439;-69